Terminal Aerodrome Forecast
Issued by NWS Melbourne, FL

Home | Current Version | Previous Version | Text Only | Print | Product List | Glossary On
Versions: 1 2 3 4 5 6 7 8 9 10 11 12 13 14 15 16 17 18 19 20 21 22 23 24 25 26
588
FTUS42 KMLB 222334
TAFMCO
TAF
KMCO 222334Z 2300/2324 09009KT P6SM -SHRA SCT015 BKN070 OVC090
      TEMPO 2300/2303 3SM SHRA BR BKN015 OVC050
     FM230300 03005KT P6SM SCT015 BKN090 OVC140
      TEMPO 2303/2306 5SM -SHRA BKN015 OVC050
     FM230600 31005KT P6SM VCSH SCT006 BKN010
      TEMPO 2309/2313 5SM BR OVC006
     FM231400 03006KT P6SM VCSH BKN012
     FM231800 02010KT P6SM SCT030=

USA.gov is the U.S. government's official web portal to all federal, state and local government web resources and services.